Blyton, Illinois
Current Conditions -  °F | °C
As of 2:35 PM on Saturday 25 Oct 2014 (Local Time) from KMQB Reporting Station
Clear Clear  
Wind Chill: 75°   Ceiling: Unl
Heat Index: 75°   Visibility: 10mi
Dew Point: 41°   Wind: 9mph
Humidity: 30%   Direction: 310°NW
Pressure: 30.04"   Gusts: NA
Location:  40.4895°N, 90.2827°W
Report Text: KMQB 251935Z AUTO 31008KT 10SM CLR 24/05 A3004 RMK AO2 T02400052
Loading
Personal Weather Stations






























Interactive Weather Map
Tropical Storm Tracking
New forecast layout! Learn more

10-Day Weather Forecast

Advertisements
Track Severe Weather on mobile